createdAt,value
2022-12-15T00:00:17.392Z,15.15
2022-12-15T00:03:26.846Z,15.88
2022-12-15T00:06:34.158Z,16.38
2022-12-15T00:09:39.562Z,16.02
2022-12-15T00:12:45.037Z,15.48
2022-12-15T00:15:50.191Z,16.42
2022-12-15T00:18:55.126Z,15.95
2022-12-15T00:22:01.834Z,15.07
2022-12-15T00:25:07.173Z,16.08
2022-12-15T00:28:14.926Z,15.07
2022-12-15T00:31:20.046Z,15.48
2022-12-15T00:34:26.033Z,16.83
2022-12-15T00:37:32.705Z,15.15
2022-12-15T00:40:20.449Z,14.88
2022-12-15T00:43:12.041Z,15.77
2022-12-15T00:46:17.951Z,15.02
2022-12-15T00:49:25.877Z,15.73
2022-12-15T00:52:33.371Z,14.32
2022-12-15T00:55:39.037Z,16.42
2022-12-15T00:58:44.074Z,15.07
2022-12-15T01:01:49.733Z,15.45
2022-12-15T01:04:55.358Z,14.50
2022-12-15T01:08:01.585Z,14.68
2022-12-15T01:11:06.900Z,14.40
2022-12-15T01:14:12.172Z,15.15
2022-12-15T01:17:17.206Z,15.38
2022-12-15T01:20:18.115Z,14.70
2022-12-15T01:23:07.112Z,14.50
2022-12-15T01:25:55.857Z,15.00
2022-12-15T01:28:43.620Z,15.32
2022-12-15T01:31:31.680Z,14.20
2022-12-15T01:34:22.602Z,15.82
2022-12-15T01:37:10.658Z,14.27
2022-12-15T01:40:17.782Z,13.27
2022-12-15T01:43:10.766Z,15.98
2022-12-15T01:46:05.565Z,16.48
2022-12-15T01:49:00.915Z,15.90
2022-12-15T01:51:52.479Z,14.15
2022-12-15T01:54:46.240Z,15.05
2022-12-15T01:57:38.825Z,15.75
2022-12-15T02:00:28.162Z,14.65
2022-12-15T02:03:17.148Z,15.85
2022-12-15T02:06:05.033Z,16.00
2022-12-15T02:08:56.455Z,15.95
2022-12-15T02:11:56.207Z,17.45
2022-12-15T02:15:01.104Z,15.85
2022-12-15T02:17:58.515Z,16.60
2022-12-15T02:20:59.999Z,15.65
2022-12-15T02:24:26.360Z,16.05
2022-12-15T02:27:35.363Z,16.02
2022-12-15T02:30:39.277Z,15.48
2022-12-15T02:33:31.228Z,15.80
2022-12-15T02:36:26.837Z,15.50
2022-12-15T02:39:15.830Z,15.63
2022-12-15T02:42:04.026Z,15.55
2022-12-15T02:44:55.930Z,15.15
2022-12-15T02:47:53.420Z,16.20
2022-12-15T02:50:58.681Z,16.08
2022-12-15T02:54:07.301Z,15.35
2022-12-15T02:57:06.003Z,16.35
2022-12-15T02:59:58.714Z,16.23
2022-12-15T03:02:52.129Z,16.48
2022-12-15T03:05:40.312Z,18.48
2022-12-15T03:08:28.364Z,16.55
2022-12-15T03:11:16.673Z,16.33
2022-12-15T03:14:04.425Z,17.00
2022-12-15T03:16:52.573Z,16.27
2022-12-15T03:19:41.660Z,16.75
2022-12-15T03:22:29.507Z,17.60
2022-12-15T03:25:17.248Z,16.52
2022-12-15T03:28:05.108Z,16.42
2022-12-15T03:30:53.311Z,16.55
2022-12-15T03:33:41.433Z,16.83
2022-12-15T03:36:31.091Z,16.42
2022-12-15T03:39:19.079Z,15.73
2022-12-15T03:42:07.540Z,16.10
2022-12-15T03:44:55.544Z,16.20
2022-12-15T03:47:44.293Z,16.38
2022-12-15T03:50:32.037Z,15.93
2022-12-15T03:53:21.698Z,15.85
2022-12-15T03:56:10.065Z,16.05
2022-12-15T03:58:58.152Z,16.02
2022-12-15T04:01:49.270Z,15.77
2022-12-15T04:04:37.612Z,20.60
2022-12-15T04:07:25.796Z,16.63
2022-12-15T04:10:15.895Z,16.42
2022-12-15T04:13:05.833Z,15.80
2022-12-15T04:15:53.642Z,16.25
2022-12-15T04:18:41.696Z,15.98
2022-12-15T04:21:28.664Z,17.10
2022-12-15T04:24:34.208Z,15.52
2022-12-15T04:27:41.054Z,16.65
2022-12-15T04:30:46.838Z,15.35
2022-12-15T04:33:52.420Z,15.35
2022-12-15T04:36:59.182Z,14.40
2022-12-15T04:40:09.035Z,15.55
2022-12-15T04:43:15.604Z,14.65
2022-12-15T04:46:20.907Z,15.80
2022-12-15T04:49:26.470Z,15.60
2022-12-15T04:52:31.958Z,15.95
2022-12-15T04:55:37.454Z,15.73
2022-12-15T04:58:44.203Z,14.90
2022-12-15T05:01:49.481Z,15.32
2022-12-15T05:04:55.411Z,15.32
2022-12-15T05:08:00.723Z,16.85
2022-12-15T05:11:05.756Z,15.10
2022-12-15T05:14:12.690Z,15.75
2022-12-15T05:17:17.957Z,14.75
2022-12-15T05:20:24.022Z,15.73
2022-12-15T05:23:29.825Z,16.48
2022-12-15T05:26:35.167Z,16.13
2022-12-15T05:29:41.725Z,16.05
2022-12-15T05:32:32.288Z,16.10
2022-12-15T05:35:20.194Z,16.35
2022-12-15T05:38:08.513Z,15.40
2022-12-15T05:40:59.398Z,15.98
2022-12-15T05:43:49.423Z,15.98
2022-12-15T05:46:39.272Z,16.02
2022-12-15T05:49:26.952Z,16.60
2022-12-15T05:52:14.960Z,14.52
2022-12-15T05:55:03.029Z,15.60
2022-12-15T05:57:53.474Z,16.10
2022-12-15T06:00:41.299Z,14.20
2022-12-15T06:03:31.756Z,15.77
2022-12-15T06:06:20.411Z,15.88
2022-12-15T06:09:08.476Z,16.55
2022-12-15T06:11:56.656Z,16.75
2022-12-15T06:14:44.370Z,15.63
2022-12-15T06:17:34.931Z,15.27
2022-12-15T06:20:26.065Z,16.48
2022-12-15T06:23:15.358Z,18.38
2022-12-15T06:26:11.753Z,17.35
2022-12-15T06:29:02.625Z,16.08
2022-12-15T06:31:50.576Z,17.67
2022-12-15T06:34:38.698Z,16.92
2022-12-15T06:37:30.125Z,16.90
2022-12-15T06:40:17.820Z,16.10
2022-12-15T06:43:07.848Z,16.80
2022-12-15T06:45:55.767Z,16.50
2022-12-15T06:48:44.964Z,15.98
2022-12-15T06:51:33.373Z,16.55
2022-12-15T06:54:22.805Z,15.07
2022-12-15T06:57:10.792Z,16.10
2022-12-15T07:00:01.472Z,16.13
2022-12-15T07:02:50.134Z,15.73
2022-12-15T07:05:38.415Z,15.75
2022-12-15T07:08:30.915Z,16.33
2022-12-15T07:11:23.626Z,16.50
2022-12-15T07:14:13.496Z,17.35
2022-12-15T07:17:01.264Z,16.75
2022-12-15T07:19:49.189Z,16.95
2022-12-15T07:22:37.323Z,16.08
2022-12-15T07:25:25.465Z,16.70
2022-12-15T07:28:14.805Z,15.27
2022-12-15T07:31:08.070Z,16.50
2022-12-15T07:33:56.054Z,16.20
2022-12-15T07:36:49.995Z,15.60
2022-12-15T07:39:43.693Z,17.50
2022-12-15T07:42:33.486Z,16.00
2022-12-15T07:45:22.918Z,15.80
2022-12-15T07:48:11.048Z,16.38
2022-12-15T07:51:07.425Z,15.18
2022-12-15T07:53:57.955Z,16.48
2022-12-15T07:56:50.479Z,16.10
2022-12-15T07:59:38.737Z,17.95
2022-12-15T08:02:28.192Z,16.90
2022-12-15T08:05:28.100Z,16.50
2022-12-15T08:08:15.800Z,17.27
2022-12-15T08:11:09.133Z,17.05
2022-12-15T08:14:06.970Z,17.33
2022-12-15T08:16:56.325Z,17.15
2022-12-15T08:19:45.850Z,18.20
2022-12-15T08:22:33.584Z,17.50
2022-12-15T08:25:21.797Z,16.83
2022-12-15T08:28:09.707Z,16.48
2022-12-15T08:31:03.025Z,17.08
2022-12-15T08:36:41.121Z,16.33
2022-12-15T08:39:29.309Z,17.75
2022-12-15T08:42:17.218Z,19.35
2022-12-15T08:45:06.387Z,18.73
2022-12-15T08:47:54.835Z,19.02
2022-12-15T08:50:46.275Z,19.45
2022-12-15T08:53:36.175Z,19.00
2022-12-15T08:56:25.540Z,20.17
2022-12-15T08:59:13.861Z,20.80
2022-12-15T09:02:02.081Z,21.35
2022-12-15T09:04:50.976Z,21.23
2022-12-15T09:07:40.350Z,20.75
2022-12-15T09:10:29.842Z,21.10
2022-12-15T09:13:17.623Z,22.17
2022-12-15T09:16:10.242Z,22.73
2022-12-15T09:19:00.777Z,23.63
2022-12-15T09:21:49.582Z,22.55
2022-12-15T09:24:37.384Z,22.67
2022-12-15T09:27:26.501Z,24.17
2022-12-15T09:30:14.961Z,22.25
2022-12-15T09:33:02.831Z,23.73
2022-12-15T09:35:54.492Z,21.98
2022-12-15T09:38:44.143Z,22.48
2022-12-15T09:41:34.003Z,23.60
2022-12-15T09:44:25.579Z,23.67
2022-12-15T09:47:26.433Z,23.17
2022-12-15T09:50:16.505Z,22.17
2022-12-15T09:53:23.146Z,23.40
2022-12-15T09:56:22.011Z,23.70
2022-12-15T09:59:26.848Z,22.75
2022-12-15T10:02:45.075Z,22.23
2022-12-15T10:06:07.449Z,23.05
2022-12-15T10:08:59.569Z,24.17
2022-12-15T10:11:53.010Z,25.50
2022-12-15T10:14:46.852Z,24.23
2022-12-15T10:17:50.458Z,26.67
2022-12-15T10:20:38.858Z,24.70
2022-12-15T10:23:27.362Z,22.58
2022-12-15T10:26:21.611Z,24.08
2022-12-15T10:29:23.565Z,22.30
2022-12-15T10:32:19.238Z,24.27
2022-12-15T10:35:15.912Z,22.45
2022-12-15T10:38:05.643Z,21.52
2022-12-15T10:40:56.434Z,21.42
2022-12-15T10:43:46.942Z,22.65
2022-12-15T10:46:35.179Z,21.10
2022-12-15T10:49:25.703Z,21.83
2022-12-15T10:52:34.877Z,21.45
2022-12-15T10:55:38.425Z,20.73
2022-12-15T10:58:26.361Z,19.75
2022-12-15T11:01:19.477Z,21.55
2022-12-15T11:04:27.052Z,19.95
2022-12-15T11:07:15.972Z,19.90
2022-12-15T11:10:19.944Z,22.20
2022-12-15T11:13:13.937Z,18.10
2022-12-15T11:16:15.766Z,21.45
2022-12-15T11:19:09.281Z,19.35
2022-12-15T11:22:02.320Z,20.73
2022-12-15T11:27:47.994Z,19.90
2022-12-15T11:30:43.966Z,20.15
2022-12-15T11:33:32.260Z,20.30
2022-12-15T11:36:31.318Z,21.08
2022-12-15T11:39:31.573Z,20.83
2022-12-15T11:42:30.444Z,20.48
2022-12-15T11:45:25.718Z,21.58
2022-12-15T11:48:17.328Z,20.75
2022-12-15T11:51:12.295Z,22.30
2022-12-15T11:54:14.701Z,21.30
2022-12-15T11:57:21.078Z,20.50
2022-12-15T12:00:20.516Z,20.83
2022-12-15T12:03:24.777Z,21.27
2022-12-15T12:06:17.900Z,21.40
2022-12-15T12:12:14.160Z,19.65
2022-12-15T12:15:20.709Z,20.02
2022-12-15T12:18:21.029Z,20.75
2022-12-15T12:21:13.390Z,21.88
2022-12-15T12:24:05.365Z,22.23
2022-12-15T12:27:00.172Z,21.40
2022-12-15T12:29:52.384Z,20.70
2022-12-15T12:32:48.372Z,22.05
2022-12-15T12:35:46.581Z,21.58
2022-12-15T12:38:42.141Z,22.10
2022-12-15T12:41:40.429Z,22.40
2022-12-15T12:44:33.442Z,20.95
2022-12-15T12:47:26.051Z,22.55
2022-12-15T12:50:19.966Z,22.30
2022-12-15T12:53:28.074Z,21.92
2022-12-15T12:56:33.099Z,20.65
2022-12-15T12:59:40.304Z,21.40
2022-12-15T13:02:54.837Z,21.13
2022-12-15T13:05:44.316Z,18.60
2022-12-15T13:08:51.574Z,20.98
2022-12-15T13:12:20.801Z,21.23
2022-12-15T13:15:21.477Z,21.38
2022-12-15T13:18:19.344Z,21.40
2022-12-15T13:21:38.128Z,19.27
2022-12-15T13:24:45.119Z,20.98
2022-12-15T13:27:39.117Z,19.30
2022-12-15T13:30:27.481Z,22.10
2022-12-15T13:33:20.417Z,20.92
2022-12-15T13:36:09.450Z,20.30
2022-12-15T13:38:57.829Z,20.42
2022-12-15T13:42:34.254Z,20.83
2022-12-15T13:45:50.281Z,20.55
2022-12-15T13:48:44.497Z,20.33
2022-12-15T13:51:39.200Z,20.77
2022-12-15T13:54:32.784Z,20.60
2022-12-15T13:57:24.056Z,20.95
2022-12-15T14:00:22.809Z,20.60
2022-12-15T14:03:13.315Z,21.50
2022-12-15T14:06:02.475Z,22.25
2022-12-15T14:08:51.455Z,21.77
2022-12-15T14:11:57.859Z,21.30
2022-12-15T14:14:50.371Z,21.27
2022-12-15T14:17:38.464Z,14.38
2022-12-15T14:20:28.538Z,22.05
2022-12-15T14:23:20.750Z,22.08
2022-12-15T14:26:12.181Z,20.55
2022-12-15T14:29:03.551Z,22.92
2022-12-15T14:31:55.899Z,20.23
2022-12-15T14:34:45.247Z,21.05
2022-12-15T14:37:39.226Z,21.30
2022-12-15T14:40:29.265Z,20.83
2022-12-15T14:43:23.859Z,21.25
2022-12-15T14:46:17.796Z,21.00
2022-12-15T14:49:19.513Z,22.67
2022-12-15T14:52:13.722Z,21.65
2022-12-15T14:55:04.060Z,23.45
2022-12-15T14:57:54.039Z,21.38
2022-12-15T15:00:52.834Z,21.73
2022-12-15T15:03:42.413Z,20.63
2022-12-15T15:06:36.016Z,21.60
2022-12-15T15:09:27.043Z,21.90
2022-12-15T15:12:18.567Z,22.52
2022-12-15T15:15:09.897Z,22.25
2022-12-15T15:18:00.197Z,22.23
2022-12-15T15:20:57.901Z,22.25
2022-12-15T15:24:04.443Z,20.27
2022-12-15T15:27:42.834Z,20.65
2022-12-15T15:30:31.232Z,21.35
2022-12-15T15:33:23.241Z,20.92
2022-12-15T15:36:13.332Z,22.55
2022-12-15T15:39:15.304Z,22.20
2022-12-15T15:42:11.632Z,21.35
2022-12-15T15:45:04.337Z,22.52
2022-12-15T15:48:25.117Z,22.90
2022-12-15T15:51:14.101Z,20.35
2022-12-15T15:54:06.648Z,22.05
2022-12-15T15:56:54.546Z,22.42
2022-12-15T15:59:44.716Z,22.02
2022-12-15T16:02:32.855Z,22.30
2022-12-15T16:05:22.193Z,23.67
2022-12-15T16:08:15.532Z,22.98
2022-12-15T16:11:05.161Z,22.37
2022-12-15T16:13:53.359Z,23.05
2022-12-15T16:16:41.938Z,23.45
2022-12-15T16:19:33.754Z,24.25
2022-12-15T16:22:27.700Z,22.42
2022-12-15T16:25:18.729Z,24.75
2022-12-15T16:28:14.278Z,22.95
2022-12-15T16:31:02.376Z,24.27
2022-12-15T16:33:50.274Z,23.30
2022-12-15T16:36:39.134Z,22.95
2022-12-15T16:39:29.022Z,24.73
2022-12-15T16:42:17.738Z,24.88
2022-12-15T16:45:16.451Z,24.30
2022-12-15T16:48:04.583Z,25.70
2022-12-15T16:50:55.113Z,24.73
2022-12-15T16:53:45.036Z,26.17
2022-12-15T16:56:33.525Z,25.38
2022-12-15T16:59:38.918Z,26.05
2022-12-15T17:02:30.337Z,25.50
2022-12-15T17:05:19.380Z,26.02
2022-12-15T17:08:09.682Z,25.13
2022-12-15T17:10:57.724Z,24.42
2022-12-15T17:13:50.958Z,25.40
2022-12-15T17:16:39.111Z,24.50
2022-12-15T17:19:28.900Z,24.60
2022-12-15T17:22:17.865Z,26.10
2022-12-15T17:25:07.230Z,26.08
2022-12-15T17:27:57.311Z,24.85
2022-12-15T17:30:45.053Z,25.73
2022-12-15T17:33:39.222Z,25.98
2022-12-15T17:36:29.685Z,25.48
2022-12-15T17:39:20.609Z,24.52
2022-12-15T17:42:17.554Z,26.73
2022-12-15T17:45:15.060Z,24.25
2022-12-15T17:48:03.295Z,24.35
2022-12-15T17:50:52.601Z,24.92
2022-12-15T17:53:51.381Z,25.52
2022-12-15T17:56:40.979Z,24.63
2022-12-15T17:59:28.811Z,23.85
2022-12-15T18:02:17.271Z,24.30
2022-12-15T18:05:06.088Z,25.55
2022-12-15T18:07:56.756Z,26.55
2022-12-15T18:10:47.397Z,24.42
2022-12-15T18:13:36.000Z,24.75
2022-12-15T18:16:24.426Z,25.38
2022-12-15T18:19:12.937Z,25.08
2022-12-15T18:22:01.199Z,24.05
2022-12-15T18:24:49.505Z,26.83
2022-12-15T18:27:39.683Z,25.98
2022-12-15T18:30:32.950Z,24.30
2022-12-15T18:36:11.511Z,23.88
2022-12-15T18:38:59.141Z,24.52
2022-12-15T18:41:48.132Z,25.45
2022-12-15T18:44:37.639Z,24.52
2022-12-15T18:47:26.380Z,24.70
2022-12-15T18:50:19.666Z,24.58
2022-12-15T18:53:13.503Z,23.17
2022-12-15T18:56:03.116Z,23.20
2022-12-15T18:58:51.378Z,22.80
2022-12-15T19:01:45.581Z,24.25
2022-12-15T19:04:33.612Z,21.98
2022-12-15T19:07:21.796Z,23.00
2022-12-15T19:10:49.356Z,22.15
2022-12-15T19:13:39.544Z,21.83
2022-12-15T19:16:55.602Z,23.83
2022-12-15T19:20:02.390Z,23.25
2022-12-15T19:22:51.155Z,23.27
2022-12-15T19:25:40.127Z,22.50
2022-12-15T19:28:28.078Z,23.25
2022-12-15T19:31:16.279Z,21.90
2022-12-15T19:34:04.382Z,22.00
2022-12-15T19:36:53.873Z,22.42
2022-12-15T19:39:41.744Z,22.95
2022-12-15T19:42:32.420Z,22.48
2022-12-15T19:45:22.036Z,22.38
2022-12-15T19:48:12.353Z,22.13
2022-12-15T19:51:00.373Z,21.80
2022-12-15T19:53:50.807Z,22.80
2022-12-15T19:56:38.912Z,21.45
2022-12-15T19:59:28.428Z,21.73
2022-12-15T20:02:26.627Z,22.42
2022-12-15T20:05:14.850Z,21.33
2022-12-15T20:08:05.600Z,20.15
2022-12-15T20:14:29.172Z,21.17
2022-12-15T20:17:18.724Z,21.88
2022-12-15T20:20:07.943Z,20.60
2022-12-15T20:23:00.965Z,22.40
2022-12-15T20:25:53.319Z,24.58
2022-12-15T20:28:45.130Z,21.80
2022-12-15T20:31:33.251Z,22.80
2022-12-15T20:34:21.975Z,22.80
2022-12-15T20:37:20.986Z,22.00
2022-12-15T20:40:20.511Z,20.77
2022-12-15T20:43:14.707Z,21.05
2022-12-15T20:46:07.345Z,21.02
2022-12-15T20:48:56.445Z,22.17
2022-12-15T20:51:45.309Z,20.73
2022-12-15T20:54:33.474Z,21.23
2022-12-15T20:57:21.943Z,22.38
2022-12-15T21:00:12.183Z,20.67
2022-12-15T21:03:10.286Z,20.42
2022-12-15T21:06:00.573Z,20.25
2022-12-15T21:08:49.415Z,20.05
2022-12-15T21:11:37.530Z,19.25
2022-12-15T21:14:26.136Z,18.92
2022-12-15T21:17:16.830Z,20.35
2022-12-15T21:20:07.046Z,20.02
2022-12-15T21:22:55.291Z,19.17
2022-12-15T21:25:43.409Z,19.08
2022-12-15T21:28:31.948Z,19.15
2022-12-15T21:31:20.406Z,19.10
2022-12-15T21:34:09.535Z,18.27
2022-12-15T21:36:59.373Z,18.63
2022-12-15T21:39:47.623Z,18.75
2022-12-15T21:42:37.330Z,17.50
2022-12-15T21:45:26.378Z,17.92
2022-12-15T21:48:32.183Z,17.42
2022-12-15T21:51:20.374Z,17.50
2022-12-15T21:54:18.141Z,17.13
2022-12-15T21:57:10.358Z,17.23
2022-12-15T21:59:58.465Z,17.15
2022-12-15T22:02:47.174Z,15.85
2022-12-15T22:05:35.484Z,15.75
2022-12-15T22:08:23.614Z,15.73
2022-12-15T22:11:22.224Z,15.13
2022-12-15T22:14:20.635Z,16.10
2022-12-15T22:17:17.101Z,14.75
2022-12-15T22:20:14.279Z,16.25
2022-12-15T22:23:02.250Z,16.05
2022-12-15T22:25:55.442Z,14.63
2022-12-15T22:28:45.164Z,14.70
2022-12-15T22:31:33.028Z,14.75
2022-12-15T22:34:23.038Z,15.07
2022-12-15T22:37:10.847Z,14.88
2022-12-15T22:39:58.917Z,14.00
2022-12-15T22:42:50.834Z,13.82
2022-12-15T22:45:42.849Z,15.20
2022-12-15T22:48:36.862Z,14.65
2022-12-15T22:51:25.203Z,15.07
2022-12-15T22:54:29.340Z,14.43
2022-12-15T22:57:21.986Z,14.05
2022-12-15T23:00:12.930Z,14.43
2022-12-15T23:03:02.575Z,14.23
2022-12-15T23:05:53.027Z,13.18
2022-12-15T23:08:41.489Z,13.85
2022-12-15T23:11:38.430Z,15.02
2022-12-15T23:14:40.298Z,13.05
2022-12-15T23:17:28.272Z,14.00
2022-12-15T23:20:17.595Z,12.80
2022-12-15T23:23:05.694Z,13.50
2022-12-15T23:25:54.832Z,13.52
2022-12-15T23:28:43.352Z,13.18
2022-12-15T23:31:31.958Z,14.07
2022-12-15T23:34:20.500Z,13.77
2022-12-15T23:37:09.986Z,12.55
2022-12-15T23:39:57.968Z,12.63
2022-12-15T23:42:45.931Z,13.48
2022-12-15T23:45:33.978Z,13.18
2022-12-15T23:48:22.352Z,12.90
2022-12-15T23:51:12.635Z,12.95
2022-12-15T23:54:02.099Z,12.18
2022-12-15T23:56:49.911Z,12.63
2022-12-15T23:59:39.669Z,12.80
